Time;durP1;ratioP1;P1;durP2;ratioP2;P2;SDS_P1;SDS_P2;PMS_P1;PMS_P2;Temp;Humidity;BMP_temperature;BMP_pressure;BME280_temperature;BME280_humidity;BME280_pressure;Samples;Min_cycle;Max_cycle;Signal;HPM_P1;HPM_P2
2022/04/23 00:01:35;;;;;;;21.47;15.13;;;;;;;10.04;75.66;100388.88;5027503;28;20037;-82
2022/04/23 00:04:01;;;;;;;20.70;15.73;;;;;;;10.00;75.80;100391.19;5026900;28;20435;-79
2022/04/23 00:07:01;;;;;;;22.43;15.57;;;;;;;10.00;75.90;100382.25;5027271;28;20037;-81
2022/04/23 00:09:26;;;;;;;20.37;15.33;;;;;;;9.97;76.08;100380.81;5028027;28;20041;-77
2022/04/23 00:11:55;;;;;;;21.40;15.50;;;;;;;10.00;76.05;100379.53;5026932;28;20042;-80
2022/04/23 00:14:22;;;;;;;20.83;16.27;;;;;;;9.95;76.23;100385.59;5026908;28;20693;-79
2022/04/23 00:16:50;;;;;;;19.70;16.37;;;;;;;9.94;76.39;100383.91;5027020;28;20045;-81
2022/04/23 00:19:16;;;;;;;21.47;16.33;;;;;;;9.93;76.31;100376.88;5026756;28;20280;-81
2022/04/23 00:21:42;;;;;;;20.77;16.07;;;;;;;9.92;76.46;100384.16;5041533;28;20041;-81
2022/04/23 00:24:08;;;;;;;22.27;16.50;;;;;;;9.89;76.54;100379.19;5027519;28;20040;-85
2022/04/23 00:26:34;;;;;;;22.23;16.40;;;;;;;9.84;76.78;100381.69;5025003;28;20045;-79
2022/04/23 00:29:14;;;;;;;20.80;16.80;;;;;;;9.83;76.67;100385.44;5026871;28;20032;-81
2022/04/23 00:31:41;;;;;;;21.80;17.10;;;;;;;9.80;77.05;100386.75;5026920;28;20029;-77
2022/04/23 00:34:07;;;;;;;22.57;17.07;;;;;;;9.80;77.11;100380.47;5026393;28;20041;-80
2022/04/23 00:36:33;;;;;;;24.03;18.13;;;;;;;9.77;77.19;100386.34;5026032;28;20048;-80
2022/04/23 00:38:59;;;;;;;23.83;18.10;;;;;;;9.74;77.59;100375.97;5026787;28;20059;-79
2022/04/23 00:44:08;;;;;;;23.95;18.27;;;;;;;9.74;77.70;100381.38;5026723;28;20059;-82
2022/04/23 00:46:35;;;;;;;21.93;18.50;;;;;;;9.71;77.88;100382.63;5026215;28;20037;-81
2022/04/23 00:49:00;;;;;;;23.87;18.90;;;;;;;9.70;78.02;100378.25;5026735;28;20888;-81
2022/04/23 00:51:28;;;;;;;21.90;18.40;;;;;;;9.64;78.07;100376.41;5028238;28;20087;-80
2022/04/23 00:53:54;;;;;;;22.67;18.80;;;;;;;9.66;78.28;100385.16;5026467;28;20029;-82
2022/04/23 00:56:20;;;;;;;22.40;19.17;;;;;;;9.62;78.50;100379.34;5025965;28;20358;-83
2022/04/23 00:58:46;;;;;;;24.33;19.20;;;;;;;9.59;78.49;100377.06;5028155;28;20045;-78
2022/04/23 01:01:11;;;;;;;24.73;19.27;;;;;;;9.60;78.64;100381.44;5026422;28;20430;-83
2022/04/23 01:03:37;;;;;;;22.57;19.63;;;;;;;9.55;78.79;100383.97;5026531;28;20420;-80
2022/04/23 01:06:12;;;;;;;24.43;19.27;;;;;;;9.49;79.15;100382.09;5026729;28;20049;-80
2022/04/23 01:08:38;;;;;;;24.00;20.37;;;;;;;9.48;79.31;100385.88;5025981;28;20029;-80
2022/04/23 01:11:04;;;;;;;24.20;19.87;;;;;;;9.45;79.52;100383.59;5025870;28;20668;-78
2022/04/23 01:13:29;;;;;;;26.47;20.20;;;;;;;9.43;79.77;100391.09;5025508;28;20300;-81
2022/04/23 01:15:58;;;;;;;25.63;20.10;;;;;;;9.41;79.65;100391.31;5025907;28;20039;-80
2022/04/23 01:18:24;;;;;;;26.33;21.13;;;;;;;9.35;80.23;100389.47;5026064;28;20088;-78
2022/04/23 01:20:49;;;;;;;24.50;19.83;;;;;;;9.35;79.95;100384.06;5025285;28;20123;-80
2022/04/23 01:23:15;;;;;;;25.10;21.10;;;;;;;9.32;80.23;100386.38;5048773;28;20045;-79
2022/04/23 01:25:40;;;;;;;26.00;21.97;;;;;;;9.28;80.47;100384.09;5025395;28;20453;-79
2022/04/23 01:28:08;;;;;;;25.20;20.60;;;;;;;9.22;80.72;100384.97;5057532;28;20044;-80
2022/04/23 01:30:33;;;;;;;27.20;21.73;;;;;;;9.17;81.11;100386.66;5024894;28;20371;-80
2022/04/23 01:32:59;;;;;;;26.20;22.40;;;;;;;9.15;81.49;100394.13;5025697;28;20137;-80
2022/04/23 01:35:25;;;;;;;26.07;21.50;;;;;;;9.12;81.33;100379.16;5025017;28;20047;-81
2022/04/23 01:37:50;;;;;;;27.60;22.33;;;;;;;9.10;81.95;100397.47;5024556;28;21561;-79
2022/04/23 01:40:16;;;;;;;28.07;23.20;;;;;;;9.09;81.95;100393.94;5025489;28;20389;-84
2022/04/23 01:42:42;;;;;;;26.30;22.27;;;;;;;9.03;81.93;100386.69;5023431;28;20032;-80
2022/04/23 01:45:08;;;;;;;27.07;22.73;;;;;;;9.00;82.43;100389.78;5025125;28;20492;-81
2022/04/23 01:47:33;;;;;;;27.50;22.77;;;;;;;9.03;82.48;100385.84;5025684;28;20042;-80
2022/04/23 01:49:58;;;;;;;28.70;23.10;;;;;;;9.01;82.48;100391.47;5040093;28;20052;-83
2022/04/23 01:52:24;;;;;;;27.30;23.73;;;;;;;8.98;82.65;100386.50;5024849;28;20038;-81
2022/04/23 01:54:49;;;;;;;26.80;23.90;;;;;;;8.93;82.99;100383.59;5025086;28;20045;-81
2022/04/23 01:57:14;;;;;;;27.97;23.70;;;;;;;8.90;83.14;100384.84;5024839;28;20077;-80
2022/04/23 01:59:40;;;;;;;27.20;24.00;;;;;;;8.88;83.30;100388.78;5025070;28;20044;-81
2022/04/23 02:02:05;;;;;;;30.60;24.23;;;;;;;8.88;83.38;100392.34;5025016;28;20053;-88
2022/04/23 02:04:30;;;;;;;28.40;24.77;;;;;;;8.89;83.62;100393.16;5056310;28;20468;-83
2022/04/23 02:06:56;;;;;;;28.97;24.43;;;;;;;8.86;83.62;100385.50;5024195;28;20038;-82
2022/04/23 02:09:21;;;;;;;29.37;25.30;;;;;;;8.83;83.90;100394.03;5057101;28;20493;-82
2022/04/23 02:11:47;;;;;;;30.17;26.17;;;;;;;8.81;84.04;100385.28;5024191;28;20033;-83
2022/04/23 02:14:13;;;;;;;29.33;24.87;;;;;;;8.80;84.09;100395.28;5024843;28;20037;-81
2022/04/23 02:16:40;;;;;;;31.33;27.23;;;;;;;8.76;84.42;100396.75;5025412;28;20492;-81
2022/04/23 02:19:05;;;;;;;29.37;25.97;;;;;;;8.79;84.55;100393.59;5024304;28;20255;-81
2022/04/23 02:21:31;;;;;;;31.60;25.90;;;;;;;8.76;84.45;100396.75;5024714;28;20175;-82
2022/04/23 02:23:56;;;;;;;31.30;26.00;;;;;;;8.69;84.68;100388.66;5024502;28;20861;-82
2022/04/23 02:26:22;;;;;;;30.30;26.47;;;;;;;8.74;84.74;100396.09;5024434;28;20037;-84
2022/04/23 02:28:51;;;;;;;29.97;25.77;;;;;;;8.73;84.94;100391.75;5024692;28;20039;-81
2022/04/23 02:31:17;;;;;;;32.33;27.30;;;;;;;8.71;85.00;100393.84;5039755;28;20041;-82
2022/04/23 02:33:44;;;;;;;31.77;26.87;;;;;;;8.71;85.08;100399.22;5023672;28;20041;-82
2022/04/23 02:36:11;;;;;;;31.60;27.17;;;;;;;8.66;85.18;100399.03;5024058;28;20037;-80
2022/04/23 02:38:40;;;;;;;34.07;28.10;;;;;;;8.63;85.26;100394.06;5024346;28;20033;-80
2022/04/23 02:41:06;;;;;;;34.27;28.60;;;;;;;8.59;85.62;100385.53;5024011;28;20033;-82
2022/04/23 02:43:35;;;;;;;33.37;28.60;;;;;;;8.61;85.47;100395.09;5024198;28;20051;-79
2022/04/23 02:46:01;;;;;;;32.47;27.20;;;;;;;8.51;85.58;100389.28;5024347;28;20036;-81
2022/04/23 02:48:28;;;;;;;31.27;27.43;;;;;;;8.58;86.03;100402.75;5055508;28;20064;-82
2022/04/23 02:50:54;;;;;;;32.43;28.17;;;;;;;8.56;85.79;100391.38;5023481;28;20040;-81
2022/04/23 02:53:19;;;;;;;33.93;28.20;;;;;;;8.59;85.89;100394.47;5024437;28;20045;-82
2022/04/23 02:55:46;;;;;;;33.87;28.23;;;;;;;8.59;86.12;100397.19;5024127;28;20037;-80
2022/04/23 02:58:11;;;;;;;32.73;28.87;;;;;;;8.58;85.95;100390.13;5024213;28;20045;-81
2022/04/23 03:00:42;;;;;;;34.60;29.73;;;;;;;8.54;86.33;100391.56;5024438;28;20440;-83
2022/04/23 03:03:08;;;;;;;33.23;28.90;;;;;;;8.58;86.33;100395.53;5030758;28;20033;-83
2022/04/23 03:05:34;;;;;;;33.10;28.50;;;;;;;8.55;86.36;100387.00;5024390;28;20128;-80
2022/04/23 03:08:00;;;;;;;36.20;29.63;;;;;;;8.53;86.39;100376.41;5023666;28;20069;-81
2022/04/23 03:10:26;;;;;;;34.30;28.27;;;;;;;8.56;86.30;100380.56;5021558;28;20548;-79
2022/04/23 03:12:52;;;;;;;34.80;30.07;;;;;;;8.53;86.58;100381.00;5024171;28;20091;-81
2022/04/23 03:15:17;;;;;;;36.07;30.10;;;;;;;8.53;86.57;100371.00;5023411;28;20469;-79
2022/04/23 03:17:44;;;;;;;36.13;29.97;;;;;;;8.51;86.69;100370.38;5023900;28;20029;-81
2022/04/23 03:20:10;;;;;;;35.80;30.07;;;;;;;8.49;86.79;100372.47;5039184;28;20053;-82
2022/04/23 03:22:37;;;;;;;35.93;31.43;;;;;;;8.52;87.21;100385.53;5023307;28;20039;-81
2022/04/23 03:25:03;;;;;;;35.03;30.47;;;;;;;8.58;87.06;100381.16;5024290;28;20453;-83
2022/04/23 03:27:29;;;;;;;36.53;30.43;;;;;;;8.56;87.15;100375.16;5023883;28;20053;-83
2022/04/23 03:29:58;;;;;;;36.00;30.90;;;;;;;8.60;87.10;100368.28;5022883;28;20033;-81
2022/04/23 03:32:23;;;;;;;34.67;30.20;;;;;;;8.59;86.88;100366.63;5055941;28;20553;-85
2022/04/23 03:34:49;;;;;;;37.10;30.90;;;;;;;8.67;86.80;100373.69;5056102;28;20089;-81
2022/04/23 03:37:14;;;;;;;34.70;30.33;;;;;;;8.66;86.88;100366.63;5023343;28;20030;-84
2022/04/23 03:39:39;;;;;;;36.77;31.30;;;;;;;8.60;87.12;100376.41;5023682;28;20037;-83
2022/04/23 03:42:06;;;;;;;34.87;30.77;;;;;;;8.65;87.11;100370.34;5023394;28;20396;-86
2022/04/23 03:44:31;;;;;;;37.13;32.07;;;;;;;8.59;87.13;100356.69;5054793;28;20124;-84
2022/04/23 03:47:03;;;;;;;35.80;31.07;;;;;;;8.65;86.86;100364.94;5023738;28;20060;-81
2022/04/23 03:49:29;;;;;;;36.23;31.00;;;;;;;8.61;86.97;100362.69;5023986;28;20472;-83
2022/04/23 03:51:55;;;;;;;39.23;33.17;;;;;;;8.64;87.13;100374.94;5023565;28;20377;-79
2022/04/23 03:54:20;;;;;;;37.33;31.87;;;;;;;8.66;87.32;100363.91;5023663;28;20153;-81
2022/04/23 03:56:46;;;;;;;39.90;32.10;;;;;;;8.63;87.31;100361.66;5023355;28;20053;-81
2022/04/23 03:59:12;;;;;;;36.13;31.43;;;;;;;8.60;87.51;100366.41;5022983;28;20033;-80
2022/04/23 04:01:37;;;;;;;37.77;32.00;;;;;;;8.57;87.65;100355.22;5032323;28;20033;-86
2022/04/23 04:04:03;;;;;;;39.30;32.57;;;;;;;8.55;87.79;100357.28;5018332;28;20045;-83
2022/04/23 04:06:28;;;;;;;37.57;33.10;;;;;;;8.53;87.71;100354.00;5023760;28;20664;-81
2022/04/23 04:08:55;;;;;;;37.83;31.90;;;;;;;8.52;87.76;100357.72;5028840;28;20042;-82
2022/04/23 04:11:21;;;;;;;37.97;32.77;;;;;;;8.52;88.22;100353.13;5027649;28;20065;-79
2022/04/23 04:13:47;;;;;;;39.97;33.07;;;;;;;8.53;88.09;100354.81;5026646;28;20036;-84
2022/04/23 04:16:13;;;;;;;36.50;31.97;;;;;;;8.51;88.08;100354.16;5058963;28;20044;-82
2022/04/23 04:18:39;;;;;;;38.10;32.00;;;;;;;8.47;88.05;100350.22;5026351;28;20097;-81
2022/04/23 04:21:05;;;;;;;38.33;34.07;;;;;;;8.50;88.23;100359.78;5026512;28;20034;-82
2022/04/23 04:23:30;;;;;;;37.53;33.43;;;;;;;8.49;88.47;100355.44;5028785;28;20048;-81
2022/04/23 04:25:56;;;;;;;38.50;33.47;;;;;;;8.46;88.31;100359.41;5027213;28;20061;-79
2022/04/23 04:28:22;;;;;;;38.27;32.30;;;;;;;8.47;88.51;100354.81;5025301;28;20030;-81
2022/04/23 04:33:38;;;;;;;38.50;32.97;;;;;;;8.50;88.43;100348.97;5026004;28;20087;-83
2022/04/23 04:36:03;;;;;;;38.73;32.37;;;;;;;8.43;88.37;100336.31;5026880;28;20029;-84
2022/04/23 04:38:30;;;;;;;37.60;31.83;;;;;;;8.52;88.35;100347.75;5025740;28;20582;-79
2022/04/23 04:40:56;;;;;;;36.97;32.83;;;;;;;8.50;88.47;100344.44;5025776;28;20131;-81
2022/04/23 04:43:22;;;;;;;35.90;31.63;;;;;;;8.51;88.41;100343.38;5027044;28;20649;-81
2022/04/23 04:45:47;;;;;;;37.43;31.93;;;;;;;8.52;88.34;100347.75;5026563;28;21051;-82
2022/04/23 04:48:13;;;;;;;37.17;32.27;;;;;;;8.52;88.31;100347.75;5025960;28;20113;-80
2022/04/23 04:50:38;;;;;;;36.63;31.57;;;;;;;8.47;88.55;100338.63;5026549;28;20044;-77
2022/04/23 04:53:03;;;;;;;37.20;31.07;;;;;;;8.53;88.31;100352.09;5025267;28;20037;-82
2022/04/23 04:55:29;;;;;;;36.90;32.37;;;;;;;8.53;88.38;100349.41;5058220;28;20075;-78
2022/04/23 04:57:55;;;;;;;38.83;31.57;;;;;;;8.52;88.37;100345.03;5025892;28;20037;-81
2022/04/23 05:00:20;;;;;;;35.93;31.67;;;;;;;8.56;88.14;100353.56;5026357;28;20370;-80
2022/04/23 05:02:45;;;;;;;37.07;32.23;;;;;;;8.63;88.14;100356.25;5026515;28;20111;-83
2022/04/23 05:05:11;;;;;;;37.13;32.57;;;;;;;8.61;88.23;100359.97;5026333;28;20091;-82
2022/04/23 05:07:36;;;;;;;36.67;32.07;;;;;;;8.68;88.01;100364.56;5040981;28;20067;-84
2022/04/23 05:10:03;;;;;;;36.67;32.60;;;;;;;8.68;87.96;100359.97;5044716;28;20039;-83
2022/04/23 05:12:28;;;;;;;35.43;31.40;;;;;;;8.73;87.93;100368.28;5056622;28;20041;-83
2022/04/23 05:15:07;;;;;;;37.87;32.37;;;;;;;8.73;87.86;100359.31;5024430;28;20033;-81
2022/04/23 05:17:32;;;;;;;37.77;31.87;;;;;;;8.80;87.74;100365.56;5025503;28;20053;-84
2022/04/23 05:19:57;;;;;;;36.43;32.53;;;;;;;8.85;87.49;100368.44;5025660;28;20060;-83
2022/04/23 05:22:23;;;;;;;36.37;32.20;;;;;;;8.88;87.39;100362.63;5026431;28;20037;-83
2022/04/23 05:24:48;;;;;;;35.73;31.90;;;;;;;8.91;87.00;100358.69;5026181;28;20037;-79
2022/04/23 05:27:13;;;;;;;36.90;31.77;;;;;;;8.98;87.29;100364.06;5025342;28;20613;-81
2022/04/23 05:29:39;;;;;;;34.63;30.83;;;;;;;9.02;86.76;100362.59;5025862;28;20492;-77
2022/04/23 05:32:04;;;;;;;36.93;31.83;;;;;;;9.03;86.73;100358.81;5024967;28;20134;-81
2022/04/23 05:34:31;;;;;;;36.83;30.93;;;;;;;9.12;86.65;100371.06;5025004;28;20432;-83
2022/04/23 05:36:57;;;;;;;35.20;31.07;;;;;;;9.17;86.30;100371.25;5023756;28;20038;-81
2022/04/23 05:39:22;;;;;;;34.73;31.00;;;;;;;9.57;85.09;100365.66;5025185;28;20072;-82
2022/04/23 05:41:47;;;;;;;33.27;29.63;;;;;;;10.19;82.21;100372.31;5023952;28;20045;-80
2022/04/23 05:44:13;;;;;;;32.70;28.47;;;;;;;10.71;80.38;100369.34;5025324;28;20045;-81
2022/04/23 05:46:38;;;;;;;30.63;27.33;;;;;;;10.75;78.36;100374.09;5025253;28;20068;-82
2022/04/23 05:49:03;;;;;;;31.23;27.87;;;;;;;10.57;78.89;100363.25;5057216;28;20129;-79
2022/04/23 05:51:29;;;;;;;32.00;27.87;;;;;;;10.50;79.23;100370.59;5024753;28;20154;-81
2022/04/23 05:53:54;;;;;;;30.53;27.23;;;;;;;10.62;78.99;100366.09;5026777;28;20159;-81
2022/04/23 05:56:19;;;;;;;31.77;27.97;;;;;;;10.72;78.44;100365.59;5025400;28;20511;-82
2022/04/23 05:58:46;;;;;;;31.47;27.70;;;;;;;10.72;78.48;100371.84;5024387;28;20112;-85
2022/04/23 06:01:11;;;;;;;30.97;27.60;;;;;;;10.73;78.00;100365.38;5025620;28;20037;-82
2022/04/23 06:03:37;;;;;;;32.30;29.00;;;;;;;10.76;77.88;100367.63;5025435;28;20044;-79
2022/04/23 06:06:03;;;;;;;31.67;28.27;;;;;;;10.68;78.44;100367.09;5024676;28;20043;-80
2022/04/23 06:08:28;;;;;;;31.70;28.30;;;;;;;10.62;78.90;100364.22;5007732;28;20055;-84
2022/04/23 06:10:54;;;;;;;30.83;27.50;;;;;;;10.60;78.80;100360.91;5025141;28;20497;-81
2022/04/23 06:13:19;;;;;;;30.83;27.47;;;;;;;10.74;78.25;100355.34;5024843;28;20097;-78
2022/04/23 06:15:44;;;;;;;32.07;28.53;;;;;;;11.05;77.88;100361.69;5024897;28;20098;-78
2022/04/23 06:18:10;;;;;;;31.63;28.20;;;;;;;11.31;76.24;100361.34;5025017;28;20029;-79
2022/04/23 06:20:35;;;;;;;29.97;26.77;;;;;;;11.29;75.56;100360.75;5024811;28;20052;-78
2022/04/23 06:23:04;;;;;;;30.60;27.30;;;;;;;11.20;76.49;100350.44;5024603;28;20033;-79
2022/04/23 06:25:31;;;;;;;30.40;27.10;;;;;;;11.23;76.22;100358.97;5023161;28;20032;-78
2022/04/23 06:27:56;;;;;;;30.27;27.07;;;;;;;11.18;75.88;100352.53;5023819;28;20044;-76
2022/04/23 06:30:22;;;;;;;32.27;28.97;;;;;;;11.04;76.49;100351.88;5056283;28;20037;-77
2022/04/23 06:32:47;;;;;;;31.40;28.10;;;;;;;11.05;76.43;100340.81;5024489;28;20049;-78
2022/04/23 06:35:12;;;;;;;31.13;27.80;;;;;;;11.11;76.25;100361.59;5024378;28;20045;-79
2022/04/23 06:37:41;;;;;;;32.40;27.47;;;;;;;10.98;76.70;100361.75;5023973;28;20033;-81
2022/04/23 06:40:10;;;;;;;31.33;27.57;;;;;;;11.08;76.75;100348.50;5023987;28;20040;-80
2022/04/23 06:42:36;;;;;;;30.43;27.13;;;;;;;11.20;77.41;100353.97;5023953;28;20370;-79
2022/04/23 06:45:01;;;;;;;30.47;27.17;;;;;;;11.29;76.39;100349.09;5024529;28;20044;-82
2022/04/23 06:47:26;;;;;;;32.13;28.70;;;;;;;11.17;76.06;100350.91;5024113;28;20072;-75
2022/04/23 06:49:52;;;;;;;43.30;28.90;;;;;;;11.27;76.62;100352.03;5024070;28;20052;-79
2022/04/23 06:52:17;;;;;;;31.47;28.17;;;;;;;11.32;75.66;100352.16;5023929;28;20045;-80
2022/04/23 06:54:42;;;;;;;31.90;28.70;;;;;;;11.39;75.46;100360.19;5023894;28;20120;-83
2022/04/23 06:57:08;;;;;;;32.77;28.90;;;;;;;11.45;74.98;100350.31;5023567;28;20166;-82
2022/04/23 06:59:33;;;;;;;32.07;28.67;;;;;;;11.52;75.68;100344.78;5024165;28;20041;-77
2022/04/23 07:02:02;;;;;;;30.53;27.33;;;;;;;11.43;74.42;100342.41;5023610;28;20576;-83
2022/04/23 07:05:01;;;;;;;32.07;28.73;;;;;;;11.46;74.60;100347.38;5020911;28;20051;-82
2022/04/23 07:07:26;;;;;;;30.80;27.10;;;;;;;11.46;74.45;100346.53;5023571;28;20041;-80
2022/04/23 07:09:52;;;;;;;30.97;27.27;;;;;;;11.68;75.02;100338.72;5024019;28;20037;-79
2022/04/23 07:12:17;;;;;;;34.13;27.67;;;;;;;11.93;74.16;100346.69;5023639;28;20052;-76
2022/04/23 07:14:43;;;;;;;30.10;26.90;;;;;;;12.05;73.35;100338.59;5055765;28;20068;-77
2022/04/23 07:17:10;;;;;;;31.47;26.23;;;;;;;12.15;72.46;100340.72;5029963;28;20453;-79
2022/04/23 07:19:39;;;;;;;30.37;27.30;;;;;;;11.91;71.95;100339.84;5023994;28;20053;-81
2022/04/23 07:22:05;;;;;;;30.40;26.70;;;;;;;12.06;72.27;100337.56;5024595;28;20076;-79
2022/04/23 07:24:30;;;;;;;33.90;27.77;;;;;;;12.06;72.13;100331.28;5023530;28;20112;-83
2022/04/23 07:26:59;;;;;;;30.23;27.10;;;;;;;12.12;71.81;100333.06;5023893;28;20041;-76
2022/04/23 07:29:24;;;;;;;29.47;26.47;;;;;;;12.10;71.05;100340.59;5024380;28;20400;-80
2022/04/23 07:31:49;;;;;;;30.70;27.00;;;;;;;12.33;72.56;100335.22;5023251;28;20251;-81
2022/04/23 07:39:44;;;;;;;28.83;25.73;;;;;;;12.76;69.51;100333.16;5027427;28;20048;-76
2022/04/23 07:42:10;;;;;;;30.27;25.37;;;;;;;12.69;68.52;100327.03;5027512;28;20668;-77
2022/04/23 07:44:39;;;;;;;27.53;24.67;;;;;;;12.62;67.70;100334.47;5028185;28;21469;-83
2022/04/23 07:47:23;;;;;;;32.60;25.87;;;;;;;12.74;68.32;100331.72;5026875;28;20045;-79
2022/04/23 07:49:48;;;;;;;32.70;24.58;;;;;;;12.74;67.96;100326.28;5027663;28;20039;-81
2022/04/23 07:52:13;;;;;;;33.57;25.30;;;;;;;12.80;67.87;100325.34;5027787;28;20029;-78
2022/04/23 07:54:39;;;;;;;29.50;26.33;;;;;;;12.79;67.61;100331.84;5026986;28;20042;-80
2022/04/23 07:57:35;;;;;;;27.87;24.90;;;;;;;12.90;67.26;100324.75;5024997;28;20107;-85
2022/04/23 08:00:00;;;;;;;29.33;26.37;;;;;;;12.98;67.28;100330.63;5027355;28;20165;-83
2022/04/23 08:02:25;;;;;;;30.23;25.53;;;;;;;13.06;66.79;100323.16;5027593;28;21146;-79
2022/04/23 08:04:51;;;;;;;29.47;25.00;;;;;;;13.11;66.67;100323.25;5059492;28;20556;-80
2022/04/23 08:07:16;;;;;;;28.70;25.60;;;;;;;13.23;66.34;100323.22;5034071;28;20746;-80
2022/04/23 08:09:41;;;;;;;28.33;25.33;;;;;;;13.27;65.56;100324.38;5027229;28;20037;-85
2022/04/23 08:12:07;;;;;;;29.57;24.90;;;;;;;13.33;66.45;100304.38;5059257;28;20600;-80
2022/04/23 08:14:33;;;;;;;27.50;24.60;;;;;;;13.13;65.59;100318.41;5027222;28;20037;-80
2022/04/23 08:16:59;;;;;;;27.43;24.53;;;;;;;13.11;64.77;100315.94;5026755;28;20037;-82
2022/04/23 08:19:25;;;;;;;28.63;24.73;;;;;;;13.12;65.36;100303.16;5027559;28;20049;-82
2022/04/23 08:21:51;;;;;;;28.33;25.27;;;;;;;13.31;65.47;100307.34;5026469;28;20063;-81
2022/04/23 08:24:16;;;;;;;30.07;26.87;;;;;;;13.28;65.02;100304.28;5026860;28;20032;-78
2022/04/23 08:26:41;;;;;;;29.43;24.93;;;;;;;13.46;65.35;100306.84;5026521;28;20195;-79
2022/04/23 08:31:52;;;;;;;28.17;24.97;;;;;;;13.65;65.04;100301.16;5025797;28;20476;-82
2022/04/23 08:34:18;;;;;;;28.73;25.63;;;;;;;13.66;64.56;100306.34;5026560;28;20487;-78
2022/04/23 08:36:43;;;;;;;29.03;26.03;;;;;;;13.54;63.40;100300.16;5057962;28;20049;-76
2022/04/23 08:39:08;;;;;;;28.53;24.77;;;;;;;13.40;63.24;100301.53;5025862;28;20133;-79
2022/04/23 08:41:35;;;;;;;28.03;24.97;;;;;;;13.57;64.30;100296.13;5026348;28;20531;-83
2022/04/23 08:44:06;;;;;;;29.00;26.10;;;;;;;13.54;63.58;100308.31;5026263;28;20140;-81
2022/04/23 08:46:33;;;;;;;28.57;25.57;;;;;;;13.41;64.02;100305.88;5025097;28;21486;-79
2022/04/23 08:49:16;;;;;;;27.17;24.27;;;;;;;13.67;63.64;100302.56;5025977;28;20055;-80
2022/04/23 08:51:51;;;;;;;27.27;24.57;;;;;;;13.74;61.96;100298.88;5026538;28;20079;-77
2022/04/23 08:54:17;;;;;;;28.63;25.53;;;;;;;13.99;63.88;100310.19;5025030;28;20174;-82
2022/04/23 08:56:44;;;;;;;28.93;24.70;;;;;;;14.02;61.47;100304.22;5025098;28;20056;-80
2022/04/23 08:59:12;;;;;;;28.20;25.30;;;;;;;13.89;62.25;100304.56;5026377;28;20037;-79
2022/04/23 09:01:38;;;;;;;26.70;23.80;;;;;;;14.11;62.72;100312.81;5028138;28;20036;-79
2022/04/23 09:04:06;;;;;;;27.67;24.63;;;;;;;14.25;61.22;100298.84;5024756;28;20046;-79
2022/04/23 09:06:36;;;;;;;27.57;24.67;;;;;;;14.52;61.19;100315.31;5025617;28;20029;-80
2022/04/23 09:09:12;;;;;;;27.80;24.90;;;;;;;14.41;61.50;100310.81;5026349;28;20078;-80
2022/04/23 09:11:48;;;;;;;29.50;26.30;;;;;;;14.34;61.11;100314.50;5024145;28;20045;-78
2022/04/23 09:14:33;;;;;;;28.40;25.40;;;;;;;14.63;61.38;100310.84;5026249;28;20100;-78
2022/04/23 09:25:14;;;;;;;29.27;26.17;;;;;;;14.46;61.06;100308.16;5024976;28;20565;-80
2022/04/23 09:27:43;;;;;;;32.47;25.67;;;;;;;14.38;60.72;100316.75;5025174;28;20044;-80
2022/04/23 09:30:13;;;;;;;29.73;26.53;;;;;;;14.47;61.54;100304.34;5057223;28;20416;-81
2022/04/23 09:32:58;;;;;;;29.97;26.87;;;;;;;14.84;60.77;100304.59;5025200;28;20508;-81
2022/04/23 09:35:23;;;;;;;;;;;;;;;14.68;60.19;100316.38;5025661;28;20040;-79
2022/04/23 09:40:33;;;;;;;30.17;26.80;;;;;;;14.64;59.80;100310.59;5024547;28;20106;-80
2022/04/23 09:43:02;;;;;;;30.10;26.70;;;;;;;14.74;59.68;100317.28;5025130;28;20757;-76
2022/04/23 09:45:29;;;;;;;30.13;27.10;;;;;;;14.83;59.08;100308.41;5025794;28;20115;-83
2022/04/23 09:48:16;;;;;;;29.53;26.43;;;;;;;15.10;58.82;100315.00;5024842;28;20036;-79
2022/04/23 09:50:46;;;;;;;30.23;27.23;;;;;;;15.10;58.34;100315.00;5025651;28;20025;-82
2022/04/23 09:53:14;;;;;;;31.67;28.47;;;;;;;14.94;58.95;100309.34;5025542;28;20400;-78
2022/04/23 09:55:40;;;;;;;31.67;28.47;;;;;;;14.80;59.37;100311.63;5025514;28;20480;-79
2022/04/23 09:58:09;;;;;;;29.73;26.70;;;;;;;14.68;60.12;100319.94;5024757;28;20064;-78
2022/04/23 10:00:40;;;;;;;30.70;27.67;;;;;;;14.40;59.76;100320.03;5025145;28;20025;-78
2022/04/23 10:03:07;;;;;;;30.97;28.07;;;;;;;14.40;59.91;100330.94;5025052;28;20098;-77
2022/04/23 10:05:41;;;;;;;31.80;28.60;;;;;;;14.47;60.89;100312.50;5027021;28;20092;-84
2022/04/23 10:08:17;;;;;;;31.83;28.67;;;;;;;14.37;59.84;100320.56;5025030;28;20483;-84
2022/04/23 10:10:46;;;;;;;30.93;27.70;;;;;;;14.62;60.24;100292.81;5024217;28;20041;-80
2022/04/23 10:13:12;;;;;;;31.43;27.97;;;;;;;14.61;59.43;100300.19;5025427;28;20476;-81
2022/04/23 10:15:43;;;;;;;30.93;27.53;;;;;;;14.89;59.69;100292.94;5022495;28;20235;-76
2022/04/23 10:18:10;;;;;;;31.53;28.27;;;;;;;15.22;58.92;100309.38;5025120;28;20359;-80
2022/04/23 10:20:37;;;;;;;30.50;27.30;;;;;;;15.38;57.96;100286.66;5056529;28;20235;-79
2022/04/23 10:23:24;;;;;;;30.10;26.93;;;;;;;15.48;57.34;100297.66;5024286;28;20029;-81
2022/04/23 10:26:03;;;;;;;30.43;27.27;;;;;;;15.54;56.84;100290.34;5025416;28;20480;-84
2022/04/23 10:28:29;;;;;;;29.73;26.73;;;;;;;15.45;56.14;100300.06;5024587;28;20065;-77
2022/04/23 10:31:15;;;;;;;30.10;27.13;;;;;;;15.33;56.75;100295.59;5024784;28;20190;-80
2022/04/23 10:33:44;;;;;;;31.37;28.17;;;;;;;15.41;57.67;100285.28;5055627;28;20697;-78
2022/04/23 10:36:10;;;;;;;31.43;28.03;;;;;;;15.83;57.46;100281.91;5024859;28;20440;-76
2022/04/23 10:38:38;;;;;;;30.23;26.93;;;;;;;15.66;55.84;100274.63;5024255;28;20030;-86
2022/04/23 10:41:09;;;;;;;31.27;27.97;;;;;;;15.58;57.23;100277.81;5024863;28;20115;-77
2022/04/23 10:43:34;;;;;;;32.73;29.47;;;;;;;15.40;55.96;100289.13;5023086;28;20102;-80
2022/04/23 10:46:00;;;;;;;32.37;29.07;;;;;;;15.20;57.13;100282.34;5039265;28;20052;-84
2022/04/23 10:48:27;;;;;;;31.93;28.50;;;;;;;15.39;56.71;100284.75;5056814;28;20045;-81
2022/04/23 10:51:05;;;;;;;31.53;28.27;;;;;;;15.67;56.35;100279.00;5055003;28;20034;-80
2022/04/23 10:53:41;;;;;;;30.43;27.43;;;;;;;15.80;55.87;100291.44;5039734;28;20087;-82
2022/04/23 10:56:19;;;;;;;30.90;27.67;;;;;;;15.90;55.48;100282.50;5056219;28;20037;-79
2022/04/23 10:58:45;;;;;;;30.90;27.70;;;;;;;16.22;55.62;100273.44;5055408;28;20037;-85
2022/04/23 11:01:22;;;;;;;30.43;27.23;;;;;;;16.30;54.22;100280.31;5024614;28;20029;-82
2022/04/23 11:04:06;;;;;;;31.57;28.57;;;;;;;15.92;53.96;100290.44;5024120;28;20041;-82
2022/04/23 11:12:27;;;;;;;30.90;27.90;;;;;;;16.49;53.86;100269.75;5022891;28;20041;-80
2022/04/23 11:14:55;;;;;;;30.67;27.37;;;;;;;16.35;53.77;100264.75;5023578;28;20120;-79
2022/04/23 11:17:23;;;;;;;31.20;28.20;;;;;;;16.08;53.42;100269.53;5024623;28;20037;-81
2022/04/23 11:19:52;;;;;;;32.10;28.90;;;;;;;16.08;54.45;100269.53;5022231;28;20049;-77
2022/04/23 11:22:19;;;;;;;33.13;29.63;;;;;;;16.11;53.46;100267.06;5056056;28;20040;-85
2022/04/23 11:24:46;;;;;;;31.43;28.27;;;;;;;16.00;54.63;100263.44;5022332;28;20431;-77
2022/04/23 11:27:25;;;;;;;30.83;27.63;;;;;;;16.26;54.26;100269.09;5023976;28;21366;-75
2022/04/23 11:29:54;;;;;;;32.23;29.00;;;;;;;16.12;53.51;100276.91;5023699;28;20821;-80
2022/04/23 11:32:26;;;;;;;33.03;29.73;;;;;;;15.96;54.33;100261.50;5023529;28;20033;-86
2022/04/23 11:34:59;;;;;;;32.03;28.73;;;;;;;16.18;54.13;100269.56;5023530;28;20128;-84
2022/04/23 11:37:38;;;;;;;31.37;28.03;;;;;;;16.57;54.66;100260.25;5023789;28;20041;-81
2022/04/23 11:40:14;;;;;;;31.13;28.07;;;;;;;16.74;52.98;100260.03;5023075;28;20033;-77
2022/04/23 11:42:40;;;;;;;31.63;28.23;;;;;;;16.73;52.36;100258.38;5023874;28;20108;-84
2022/04/23 11:45:06;;;;;;;30.57;27.37;;;;;;;16.88;51.68;100248.31;5024022;28;20102;-77
2022/04/23 11:47:33;;;;;;;33.17;26.90;;;;;;;16.81;51.89;100257.84;5054375;28;20038;-80